createdAt,value
2023-05-16T00:02:42.605Z,10.97
2023-05-16T00:08:06.466Z,10.95
2023-05-16T00:13:29.927Z,10.96
2023-05-16T00:18:52.883Z,10.93
2023-05-16T00:24:17.220Z,10.94
2023-05-16T00:29:39.543Z,10.95
2023-05-16T00:35:01.864Z,10.94
2023-05-16T00:40:24.950Z,10.89
2023-05-16T00:45:47.949Z,10.84
2023-05-16T00:51:10.737Z,10.84
2023-05-16T00:56:33.840Z,10.83
2023-05-16T01:01:58.889Z,10.78
2023-05-16T01:07:22.478Z,10.74
2023-05-16T01:13:19.674Z,10.72
2023-05-16T01:18:55.703Z,10.70
2023-05-16T01:24:32.130Z,10.67
2023-05-16T01:29:54.455Z,10.68
2023-05-16T01:35:18.032Z,10.66
2023-05-16T01:40:45.307Z,10.66
2023-05-16T01:46:12.557Z,10.66
2023-05-16T01:51:55.101Z,10.65
2023-05-16T01:57:21.078Z,10.46
2023-05-16T02:02:44.120Z,10.41
2023-05-16T02:08:07.333Z,10.41
2023-05-16T02:13:30.216Z,10.39
2023-05-16T02:18:52.579Z,10.39
2023-05-16T02:24:14.917Z,10.39
2023-05-16T02:29:37.314Z,10.39
2023-05-16T02:34:59.652Z,10.35
2023-05-16T02:46:47.076Z,10.32
2023-05-16T02:52:09.913Z,10.29
2023-05-16T02:57:32.345Z,10.24
2023-05-16T03:02:54.756Z,10.24
2023-05-16T03:08:17.573Z,10.19
2023-05-16T03:13:39.856Z,10.25
2023-05-16T03:19:03.556Z,10.22
2023-05-16T03:24:26.536Z,10.20
2023-05-16T03:29:49.079Z,10.20
2023-05-16T03:35:12.306Z,10.20
2023-05-16T03:40:34.576Z,10.21
2023-05-16T03:45:56.966Z,10.22
2023-05-16T03:51:19.316Z,10.24
2023-05-16T03:56:42.221Z,10.28
2023-05-16T04:02:04.620Z,10.28
2023-05-16T04:07:27.785Z,10.29
2023-05-16T04:12:50.477Z,10.34
2023-05-16T04:18:12.865Z,10.38
2023-05-16T04:23:35.773Z,10.52
2023-05-16T04:29:00.135Z,10.68
2023-05-16T04:34:24.486Z,10.68
2023-05-16T04:39:48.727Z,10.77
2023-05-16T04:45:12.300Z,10.73
2023-05-16T04:50:34.853Z,10.73
2023-05-16T04:55:57.182Z,10.71
2023-05-16T05:01:19.491Z,10.69
2023-05-16T05:06:41.870Z,10.76
2023-05-16T05:12:04.311Z,10.82
2023-05-16T05:17:27.228Z,10.91
2023-05-16T05:22:49.874Z,11.04
2023-05-16T05:28:12.180Z,11.18
2023-05-16T05:33:37.778Z,11.26
2023-05-16T05:39:00.064Z,11.43
2023-05-16T05:44:22.414Z,11.59
2023-05-16T05:49:45.849Z,11.88
2023-05-16T05:55:08.208Z,11.91
2023-05-16T06:00:31.243Z,11.99
2023-05-16T06:05:53.483Z,12.01
2023-05-16T06:11:15.838Z,12.06
2023-05-16T06:16:40.715Z,12.21
2023-05-16T06:22:03.487Z,12.45
2023-05-16T06:27:25.958Z,12.53
2023-05-16T06:32:48.473Z,12.47
2023-05-16T06:38:10.810Z,12.34
2023-05-16T06:43:33.093Z,12.19
2023-05-16T06:48:55.467Z,12.02
2023-05-16T06:54:17.776Z,11.97
2023-05-16T06:59:40.231Z,11.96
2023-05-16T07:05:02.982Z,11.94
2023-05-16T07:10:26.196Z,11.98
2023-05-16T07:15:48.539Z,12.03
2023-05-16T07:21:11.908Z,12.27
2023-05-16T07:26:34.794Z,12.37
2023-05-16T07:31:57.589Z,12.50
2023-05-16T07:37:21.112Z,12.43
2023-05-16T07:42:44.861Z,12.54
2023-05-16T07:48:07.578Z,12.58
2023-05-16T07:53:29.909Z,12.78
2023-05-16T07:58:52.608Z,12.75
2023-05-16T08:04:15.611Z,12.55
2023-05-16T08:09:38.127Z,12.72
2023-05-16T08:15:01.412Z,12.83
2023-05-16T08:20:24.359Z,12.79
2023-05-16T08:25:46.848Z,12.87
2023-05-16T08:31:09.202Z,13.07
2023-05-16T08:36:32.429Z,13.44
2023-05-16T08:41:54.814Z,13.78
2023-05-16T08:47:26.333Z,14.41
2023-05-16T08:52:51.718Z,14.21
2023-05-16T08:58:15.007Z,13.77
2023-05-16T09:03:37.530Z,14.22
2023-05-16T09:09:01.332Z,14.57
2023-05-16T09:14:23.974Z,14.66
2023-05-16T09:19:53.751Z,14.60
2023-05-16T09:25:28.659Z,14.75
2023-05-16T09:30:51.122Z,14.93
2023-05-16T09:36:17.333Z,15.17
2023-05-16T09:41:41.919Z,15.03
2023-05-16T09:47:05.892Z,15.58
2023-05-16T09:52:29.281Z,16.10
2023-05-16T09:57:52.240Z,15.39
2023-05-16T10:03:16.435Z,15.44
2023-05-16T10:08:44.682Z,15.57
2023-05-16T10:14:09.405Z,16.70
2023-05-16T10:19:34.154Z,16.38
2023-05-16T10:25:04.258Z,16.21
2023-05-16T10:30:28.394Z,16.76
2023-05-16T10:35:51.619Z,17.37
2023-05-16T10:41:15.120Z,18.01
2023-05-16T10:46:39.423Z,17.53
2023-05-16T10:52:20.318Z,17.13
2023-05-16T10:57:44.531Z,16.98
2023-05-16T11:03:12.069Z,17.14
2023-05-16T11:08:34.567Z,16.91
2023-05-16T11:14:10.947Z,16.76
2023-05-16T11:25:34.959Z,17.39
2023-05-16T11:31:04.344Z,17.20
2023-05-16T11:36:28.923Z,17.14
2023-05-16T11:41:53.186Z,17.08
2023-05-16T11:47:16.527Z,17.22
2023-05-16T11:52:39.030Z,17.19
2023-05-16T11:58:05.186Z,17.52
2023-05-16T12:03:29.251Z,17.55
2023-05-16T12:08:57.774Z,17.34
2023-05-16T12:14:21.860Z,17.12
2023-05-16T12:19:46.013Z,17.11
2023-05-16T12:25:28.341Z,16.94
2023-05-16T12:30:53.546Z,16.93
2023-05-16T12:36:19.970Z,16.78
2023-05-16T12:41:45.360Z,16.88
2023-05-16T12:47:11.175Z,16.98
2023-05-16T12:52:38.132Z,17.13
2023-05-16T12:58:02.843Z,17.33
2023-05-16T13:03:26.599Z,18.14
2023-05-16T13:08:49.437Z,19.17
2023-05-16T13:14:12.257Z,18.17
2023-05-16T13:19:35.337Z,17.04
2023-05-16T13:24:57.640Z,16.65
2023-05-16T13:30:20.524Z,16.88
2023-05-16T13:35:42.863Z,16.47
2023-05-16T13:41:06.553Z,16.14
2023-05-16T13:46:29.593Z,16.18
2023-05-16T13:51:52.454Z,16.24
2023-05-16T13:57:15.181Z,16.16
2023-05-16T14:02:38.247Z,16.19
2023-05-16T14:08:01.401Z,16.56
2023-05-16T14:13:24.491Z,16.80
2023-05-16T14:18:47.498Z,16.95
2023-05-16T14:24:12.322Z,16.87
2023-05-16T14:29:38.809Z,16.92
2023-05-16T14:35:01.224Z,16.92
2023-05-16T14:40:24.793Z,16.80
2023-05-16T14:45:51.984Z,16.68
2023-05-16T14:51:14.829Z,16.69
2023-05-16T14:56:37.751Z,16.77
2023-05-16T15:02:00.259Z,16.72
2023-05-16T15:07:23.325Z,16.96
2023-05-16T15:12:46.058Z,16.72
2023-05-16T15:18:09.387Z,16.68
2023-05-16T15:23:31.964Z,16.45
2023-05-16T15:28:55.940Z,16.39
2023-05-16T15:34:18.296Z,16.33
2023-05-16T15:39:40.664Z,16.11
2023-05-16T15:45:03.370Z,15.99
2023-05-16T15:50:27.392Z,15.73
2023-05-16T15:55:49.744Z,15.60
2023-05-16T16:01:12.789Z,15.47
2023-05-16T16:06:35.755Z,15.32
2023-05-16T16:11:58.354Z,15.17
2023-05-16T16:17:21.517Z,15.03
2023-05-16T16:22:44.469Z,14.86
2023-05-16T16:28:08.000Z,14.70
2023-05-16T16:33:31.617Z,14.63
2023-05-16T16:38:54.432Z,14.53
2023-05-16T16:44:17.343Z,14.45
2023-05-16T16:49:41.156Z,14.45
2023-05-16T16:55:04.552Z,14.47
2023-05-16T17:00:28.479Z,14.39
2023-05-16T17:05:51.366Z,14.37
2023-05-16T17:11:14.904Z,14.26
2023-05-16T17:16:38.720Z,14.08
2023-05-16T17:22:01.477Z,13.92
2023-05-16T17:27:24.760Z,13.70
2023-05-16T17:32:47.964Z,13.51
2023-05-16T17:38:11.837Z,13.45
2023-05-16T17:43:35.951Z,13.38
2023-05-16T17:48:58.616Z,13.33
2023-05-16T17:54:21.414Z,13.30
2023-05-16T17:59:45.487Z,13.23
2023-05-16T18:05:08.145Z,13.03
2023-05-16T18:10:40.184Z,12.85
2023-05-16T18:15:55.294Z,12.53
2023-05-16T18:21:17.979Z,12.16
2023-05-16T18:26:41.046Z,12.03
2023-05-16T18:32:03.944Z,11.96
2023-05-16T18:37:27.233Z,11.90
2023-05-16T18:42:50.383Z,11.85
2023-05-16T18:48:13.402Z,11.78
2023-05-16T18:53:36.937Z,11.70
2023-05-16T18:58:59.745Z,11.67
2023-05-16T19:04:22.814Z,11.63
2023-05-16T19:09:47.329Z,11.63
2023-05-16T19:15:10.051Z,11.62
2023-05-16T19:20:32.457Z,11.61
2023-05-16T19:25:54.920Z,11.57
2023-05-16T19:31:18.368Z,11.50
2023-05-16T19:36:41.041Z,11.46
2023-05-16T19:42:07.359Z,11.36
2023-05-16T19:47:28.688Z,11.30
2023-05-16T19:52:51.740Z,11.26
2023-05-16T19:58:14.632Z,11.28
2023-05-16T20:03:37.174Z,11.27
2023-05-16T20:08:59.632Z,11.26
2023-05-16T20:14:21.958Z,11.32
2023-05-16T20:24:59.639Z,11.30
2023-05-16T20:30:23.056Z,11.20
2023-05-16T20:35:45.431Z,11.17
2023-05-16T20:41:07.833Z,11.15
2023-05-16T20:46:30.182Z,11.06
2023-05-16T20:51:53.306Z,11.04
2023-05-16T20:57:17.160Z,11.01
2023-05-16T21:02:39.884Z,11.02
2023-05-16T21:08:02.536Z,10.99
2023-05-16T21:13:25.439Z,10.98
2023-05-16T21:18:48.947Z,10.93
2023-05-16T21:24:11.723Z,10.92
2023-05-16T21:29:34.294Z,10.84
2023-05-16T21:34:56.651Z,10.80
2023-05-16T21:40:21.711Z,10.80
2023-05-16T21:45:44.028Z,10.90
2023-05-16T21:51:06.334Z,10.89
2023-05-16T21:56:28.780Z,10.92
2023-05-16T22:01:51.367Z,10.93
2023-05-16T22:07:13.828Z,10.80
2023-05-16T22:12:36.412Z,10.58
2023-05-16T22:17:58.814Z,10.47
2023-05-16T22:23:21.221Z,10.36
2023-05-16T22:28:43.529Z,10.27
2023-05-16T22:34:05.990Z,10.19
2023-05-16T22:39:28.319Z,10.06
2023-05-16T22:44:50.845Z,10.01
2023-05-16T22:50:13.425Z,9.93
2023-05-16T22:55:36.488Z,9.91
2023-05-16T23:00:59.970Z,9.90
2023-05-16T23:06:22.440Z,9.84
2023-05-16T23:11:45.298Z,9.82
2023-05-16T23:17:07.641Z,9.82
2023-05-16T23:22:29.983Z,9.75
2023-05-16T23:27:52.338Z,9.73
2023-05-16T23:33:14.801Z,9.75
2023-05-16T23:38:37.411Z,9.73
2023-05-16T23:43:59.695Z,9.69
2023-05-16T23:49:22.006Z,9.63
2023-05-16T23:54:48.085Z,9.63
